createdAt,value
2017-09-23T00:00:00.781Z,13.87
2017-09-23T00:01:10.830Z,13.88
2017-09-23T00:02:20.866Z,13.81
2017-09-23T00:03:30.891Z,13.81
2017-09-23T00:04:41.234Z,13.84
2017-09-23T00:05:51.572Z,13.76
2017-09-23T00:07:01.607Z,13.73
2017-09-23T00:08:11.953Z,13.66
2017-09-23T00:09:22.346Z,13.65
2017-09-23T00:10:32.677Z,13.58
2017-09-23T00:11:43.005Z,13.58
2017-09-23T00:12:53.040Z,13.69
2017-09-23T00:14:03.386Z,13.7
2017-09-23T00:15:13.755Z,13.65
2017-09-23T00:16:24.102Z,13.63
2017-09-23T00:17:34.133Z,13.62
2017-09-23T00:18:44.179Z,13.58
2017-09-23T00:19:54.506Z,13.63
2017-09-23T00:21:04.838Z,13.57
2017-09-23T00:22:15.194Z,13.57
2017-09-23T00:23:25.521Z,13.62
2017-09-23T00:24:35.867Z,13.62
2017-09-23T00:25:46.235Z,13.6
2017-09-23T00:26:56.313Z,13.51
2017-09-23T00:28:06.348Z,13.62
2017-09-23T00:29:16.687Z,13.57
2017-09-23T00:30:27.041Z,13.57
2017-09-23T00:31:37.392Z,13.53
2017-09-23T00:32:47.449Z,13.62
2017-09-23T00:33:57.790Z,13.6
2017-09-23T00:35:07.819Z,13.57
2017-09-23T00:36:18.160Z,13.63
2017-09-23T00:37:28.213Z,13.63
2017-09-23T00:38:38.596Z,13.68
2017-09-23T00:39:48.616Z,13.65
2017-09-23T00:40:58.947Z,13.68
2017-09-23T00:42:09.285Z,13.7
2017-09-23T00:43:19.303Z,13.69
2017-09-23T00:44:29.699Z,13.66
2017-09-23T00:45:39.727Z,13.72
2017-09-23T00:46:49.751Z,13.63
2017-09-23T00:48:00.093Z,13.62
2017-09-23T00:49:10.122Z,13.6
2017-09-23T00:50:20.468Z,13.58
2017-09-23T00:51:30.804Z,13.58
2017-09-23T00:52:42.209Z,13.62
2017-09-23T00:53:52.560Z,13.63
2017-09-23T00:55:02.584Z,13.65
2017-09-23T00:56:12.611Z,13.58
2017-09-23T00:57:22.935Z,13.66
2017-09-23T00:58:32.985Z,13.6
2017-09-23T00:59:43.331Z,13.58
2017-09-23T01:00:53.670Z,13.66
2017-09-23T01:02:03.429Z,13.63
2017-09-23T01:03:13.458Z,13.54
2017-09-23T01:04:23.798Z,13.57
2017-09-23T01:05:34.132Z,13.54
2017-09-23T01:06:44.153Z,13.62
2017-09-23T01:07:54.549Z,13.62
2017-09-23T01:09:04.883Z,13.65
2017-09-23T01:10:14.918Z,13.62
2017-09-23T01:11:24.935Z,13.6
2017-09-23T01:12:35.271Z,13.65
2017-09-23T01:13:45.302Z,13.63
2017-09-23T01:14:55.644Z,13.63
2017-09-23T01:16:05.987Z,13.57
2017-09-23T01:17:16.313Z,13.58
2017-09-23T01:18:26.011Z,13.53
2017-09-23T01:19:36.376Z,13.62
2017-09-23T01:20:46.704Z,13.6
2017-09-23T01:21:56.721Z,13.68
2017-09-23T01:23:06.642Z,13.57
2017-09-23T01:24:16.981Z,13.68
2017-09-23T01:25:27.059Z,13.58
2017-09-23T01:26:37.382Z,13.65
2017-09-23T01:27:47.093Z,13.6
2017-09-23T01:28:57.691Z,13.6
2017-09-23T01:30:08.047Z,13.54
2017-09-23T01:31:18.379Z,13.5
2017-09-23T01:32:28.725Z,13.51
2017-09-23T01:33:39.048Z,13.54
2017-09-23T01:34:49.391Z,13.5
2017-09-23T01:35:59.731Z,13.5
2017-09-23T01:37:09.754Z,13.5
2017-09-23T01:38:20.119Z,13.5
2017-09-23T01:39:30.467Z,13.53
2017-09-23T01:40:40.839Z,13.5
2017-09-23T01:41:51.174Z,13.54
2017-09-23T01:43:01.264Z,13.54
2017-09-23T01:44:11.624Z,13.51
2017-09-23T01:45:21.648Z,13.45
2017-09-23T01:46:32.005Z,13.53
2017-09-23T01:47:42.347Z,13.57
2017-09-23T01:48:52.096Z,13.57
2017-09-23T01:50:02.135Z,13.57
2017-09-23T01:51:12.473Z,13.58
2017-09-23T01:52:22.806Z,13.58
2017-09-23T01:53:32.512Z,13.5
2017-09-23T01:54:42.532Z,13.63
2017-09-23T01:55:52.567Z,13.55
2017-09-23T01:57:02.909Z,13.48
2017-09-23T01:58:12.934Z,13.5
2017-09-23T01:59:22.993Z,13.6
2017-09-23T02:00:33.357Z,13.66
2017-09-23T02:01:43.385Z,13.65
2017-09-23T02:02:53.736Z,13.7
2017-09-23T02:04:04.074Z,13.65
2017-09-23T02:05:14.411Z,13.63
2017-09-23T02:06:24.118Z,13.58
2017-09-23T02:07:34.169Z,13.58
2017-09-23T02:08:44.513Z,13.66
2017-09-23T02:09:54.842Z,13.72
2017-09-23T02:11:06.314Z,13.6
2017-09-23T02:12:16.706Z,13.58
2017-09-23T02:13:26.719Z,13.68
2017-09-23T02:14:37.054Z,13.69
2017-09-23T02:15:47.407Z,13.65
2017-09-23T02:16:57.741Z,13.68
2017-09-23T02:18:08.109Z,13.76
2017-09-23T02:19:18.475Z,13.66
2017-09-23T02:20:28.166Z,13.69
2017-09-23T02:21:38.511Z,13.75
2017-09-23T02:22:48.849Z,13.83
2017-09-23T02:23:59.189Z,13.76
2017-09-23T02:25:09.226Z,13.76
2017-09-23T02:26:19.578Z,13.79
2017-09-23T02:27:29.914Z,13.84
2017-09-23T02:28:40.261Z,13.76
2017-09-23T02:29:50.656Z,13.87
2017-09-23T02:31:01.001Z,13.75
2017-09-23T02:32:11.354Z,13.73
2017-09-23T02:33:21.688Z,13.83
2017-09-23T02:34:32.037Z,13.91
2017-09-23T02:35:42.383Z,13.91
2017-09-23T02:36:52.398Z,13.83
2017-09-23T02:38:02.747Z,13.91
2017-09-23T02:39:12.807Z,13.93
2017-09-23T02:40:23.138Z,13.84
2017-09-23T02:41:33.172Z,13.84
2017-09-23T02:42:43.554Z,13.87
2017-09-23T02:43:53.911Z,13.88
2017-09-23T02:45:03.931Z,13.9
2017-09-23T02:46:13.954Z,13.91
2017-09-23T02:47:24.301Z,13.86
2017-09-23T02:48:34.320Z,13.93
2017-09-23T02:49:44.663Z,13.93
2017-09-23T02:50:54.702Z,13.93
2017-09-23T02:52:05.048Z,13.93
2017-09-23T02:53:15.438Z,13.95
2017-09-23T02:54:25.778Z,13.93
2017-09-23T02:55:36.113Z,13.94
2017-09-23T02:56:46.438Z,13.94
2017-09-23T02:57:56.461Z,13.83
2017-09-23T02:59:06.808Z,13.93
2017-09-23T03:00:17.155Z,13.88
2017-09-23T03:01:27.162Z,13.84
2017-09-23T03:33:49.572Z,10.9
2017-09-23T03:35:00.155Z,10.97
2017-09-23T03:36:10.494Z,10.9
2017-09-23T03:37:20.824Z,10.87
2017-09-23T03:38:30.841Z,10.88
2017-09-23T03:39:41.217Z,11.02
2017-09-23T03:40:51.555Z,11.03
2017-09-23T03:42:01.892Z,11.18
2017-09-23T03:43:12.232Z,11.27
2017-09-23T03:44:22.583Z,11.34
2017-09-23T03:45:32.985Z,11.56
2017-09-23T03:46:43.320Z,11.7
2017-09-23T03:47:53.355Z,11.73
2017-09-23T03:49:03.719Z,11.97
2017-09-23T03:50:13.420Z,12.05
2017-09-23T03:51:23.773Z,12.16
2017-09-23T03:52:33.816Z,12.36
2017-09-23T03:53:43.838Z,12.36
2017-09-23T03:54:54.179Z,12.51
2017-09-23T03:56:03.893Z,12.59
2017-09-23T03:57:14.293Z,12.53
2017-09-23T03:58:24.637Z,12.66
2017-09-23T03:59:34.973Z,12.73
2017-09-23T04:00:45.312Z,12.77
2017-09-23T04:01:55.643Z,12.8
2017-09-23T04:03:05.985Z,12.78
2017-09-23T04:04:16.323Z,12.88
2017-09-23T04:05:26.673Z,12.91
2017-09-23T04:06:36.999Z,12.99
2017-09-23T04:07:46.706Z,13.11
2017-09-23T04:08:57.092Z,13.11
2017-09-23T04:10:07.420Z,13.17
2017-09-23T04:11:17.763Z,13.24
2017-09-23T04:12:27.801Z,13.29
2017-09-23T04:13:38.128Z,13.36
2017-09-23T04:14:48.131Z,13.42
2017-09-23T04:15:58.460Z,13.47
2017-09-23T04:17:08.789Z,13.54
2017-09-23T04:18:19.137Z,13.51
2017-09-23T04:19:29.489Z,13.54
2017-09-23T04:20:39.836Z,13.57
2017-09-23T04:21:50.163Z,13.55
2017-09-23T04:23:00.495Z,13.57
2017-09-23T04:24:10.878Z,13.62
2017-09-23T04:25:21.141Z,13.51
2017-09-23T04:26:31.501Z,13.62
2017-09-23T04:27:41.837Z,13.57
2017-09-23T04:28:52.177Z,13.66
2017-09-23T04:30:02.194Z,13.62
2017-09-23T04:31:12.535Z,13.6
2017-09-23T04:32:22.558Z,13.65
2017-09-23T04:33:32.273Z,13.66
2017-09-23T04:34:42.603Z,13.7
2017-09-23T04:35:52.948Z,13.72
2017-09-23T04:37:03.278Z,13.73
2017-09-23T04:38:13.606Z,13.78
2017-09-23T04:39:23.942Z,13.72
2017-09-23T04:40:33.971Z,13.73
2017-09-23T04:41:43.995Z,13.79
2017-09-23T04:42:54.339Z,13.73
2017-09-23T04:44:04.401Z,13.81
2017-09-23T04:45:14.426Z,13.76
2017-09-23T04:46:24.783Z,13.91
2017-09-23T04:47:35.138Z,13.81
2017-09-23T04:48:45.484Z,13.81
2017-09-23T04:49:55.879Z,13.86
2017-09-23T04:51:06.230Z,13.79
2017-09-23T04:52:15.923Z,13.81
2017-09-23T04:53:26.245Z,13.83
2017-09-23T04:54:36.271Z,13.76
2017-09-23T04:55:46.658Z,13.86
2017-09-23T04:56:57.005Z,13.83
2017-09-23T04:58:07.025Z,13.83
2017-09-23T04:59:17.374Z,13.83
2017-09-23T05:00:27.380Z,13.87
2017-09-23T05:01:37.764Z,13.88
2017-09-23T05:02:48.112Z,13.84
2017-09-23T05:03:58.144Z,13.87
2017-09-23T05:05:08.477Z,13.93
2017-09-23T05:06:18.521Z,13.94
2017-09-23T05:07:28.862Z,13.94
2017-09-23T05:08:38.886Z,13.91
2017-09-23T05:09:48.913Z,13.93
2017-09-23T05:10:59.254Z,13.9
2017-09-23T05:12:09.612Z,13.9
2017-09-23T05:13:19.956Z,13.94
2017-09-23T05:14:29.981Z,13.97
2017-09-23T05:15:40.302Z,13.95
2017-09-23T05:16:50.325Z,13.97
2017-09-23T05:18:00.657Z,13.94
2017-09-23T05:19:10.670Z,14.01
2017-09-23T05:20:21.020Z,14.09
2017-09-23T05:21:31.380Z,14.11
2017-09-23T05:22:41.725Z,14.09
2017-09-23T05:23:52.070Z,14.2
2017-09-23T05:25:02.103Z,14.36
2017-09-23T05:26:11.845Z,14.36
2017-09-23T05:27:21.868Z,14.42
2017-09-23T05:28:32.192Z,14.44
2017-09-23T05:29:42.221Z,14.49
2017-09-23T05:30:52.566Z,14.6
2017-09-23T05:32:02.568Z,14.7
2017-09-23T05:33:12.891Z,14.66
2017-09-23T05:34:22.965Z,14.75
2017-09-23T05:35:33.314Z,14.85
2017-09-23T05:36:43.339Z,14.93
2017-09-23T05:37:53.717Z,14.95
2017-09-23T05:39:04.044Z,15
2017-09-23T05:40:14.455Z,15.08
2017-09-23T05:41:24.498Z,15.07
2017-09-23T05:42:34.820Z,15.16
2017-09-23T05:43:45.177Z,15.2
2017-09-23T05:44:55.203Z,15.18
2017-09-23T05:46:05.538Z,15.35
2017-09-23T05:47:15.555Z,15.31
2017-09-23T05:48:25.902Z,15.37
2017-09-23T05:49:36.249Z,15.37
2017-09-23T05:50:46.600Z,15.45
2017-09-23T05:51:56.651Z,15.49
2017-09-23T05:53:06.668Z,15.47
2017-09-23T05:54:18.777Z,15.52
2017-09-23T05:55:29.111Z,15.62
2017-09-23T05:56:39.454Z,15.65
2017-09-23T05:57:49.799Z,15.7
2017-09-23T05:59:00.147Z,15.77
2017-09-23T06:00:10.189Z,15.83
2017-09-23T06:01:20.260Z,15.86
2017-09-23T06:02:30.280Z,15.91
2017-09-23T06:03:40.634Z,16.06
2017-09-23T06:04:50.349Z,16.11
2017-09-23T06:06:00.690Z,16.11
2017-09-23T06:07:11.032Z,16.26
2017-09-23T06:08:21.362Z,16.27
2017-09-23T06:09:31.691Z,16.36
2017-09-23T06:10:42.032Z,16.32
2017-09-23T06:11:52.374Z,16.42
2017-09-23T06:13:02.719Z,16.45
2017-09-23T06:14:13.151Z,16.4
2017-09-23T06:15:23.176Z,16.54
2017-09-23T06:16:33.510Z,16.59
2017-09-23T06:17:43.912Z,16.58
2017-09-23T06:18:54.252Z,16.67
2017-09-23T06:20:04.589Z,16.66
2017-09-23T06:21:14.933Z,16.82
2017-09-23T06:22:25.269Z,16.9
2017-09-23T06:23:35.605Z,16.87
2017-09-23T06:24:45.954Z,16.97
2017-09-23T06:25:56.333Z,17
2017-09-23T06:27:08.385Z,17.07
2017-09-23T06:28:18.733Z,17.13
2017-09-23T06:29:29.075Z,17.22
2017-09-23T06:30:39.432Z,17.12
2017-09-23T06:31:49.773Z,17.24
2017-09-23T06:33:00.111Z,17.15
2017-09-23T06:34:10.141Z,17.17
2017-09-23T06:35:20.543Z,17.31
2017-09-23T06:36:30.251Z,17.3
2017-09-23T06:37:40.578Z,17.31
2017-09-23T06:38:50.934Z,17.38
2017-09-23T06:40:01.279Z,17.47
2017-09-23T06:41:11.669Z,17.46
2017-09-23T06:42:21.703Z,17.54
2017-09-23T06:43:32.071Z,17.54
2017-09-23T06:44:42.417Z,17.63
2017-09-23T06:45:52.788Z,17.68
2017-09-23T06:47:03.135Z,17.74
2017-09-23T06:48:13.507Z,17.79
2017-09-23T06:49:23.849Z,17.86
2017-09-23T06:50:33.887Z,17.87
2017-09-23T06:51:44.246Z,17.95
2017-09-23T06:52:54.849Z,18.05
2017-09-23T06:54:04.886Z,18.1
2017-09-23T06:55:14.923Z,18.06
2017-09-23T06:56:24.952Z,18.13
2017-09-23T06:57:35.335Z,18.14
2017-09-23T06:58:46.288Z,18.13
2017-09-23T06:59:56.306Z,18.14
2017-09-23T07:01:06.364Z,18.2
2017-09-23T07:02:16.699Z,18.14
2017-09-23T07:03:26.734Z,18.24
2017-09-23T07:04:37.097Z,18.31
2017-09-23T07:05:47.448Z,18.41
2017-09-23T07:06:57.466Z,18.39
2017-09-23T07:08:07.485Z,18.5
2017-09-23T07:09:17.833Z,18.53
2017-09-23T07:10:28.237Z,18.59
2017-09-23T07:11:38.269Z,18.56
2017-09-23T07:12:48.616Z,18.61
2017-09-23T07:13:58.974Z,18.65
2017-09-23T07:15:09.020Z,18.69
2017-09-23T07:16:19.360Z,18.72
2017-09-23T07:17:29.387Z,18.76
2017-09-23T07:18:42.034Z,18.86
2017-09-23T07:19:52.389Z,18.76
2017-09-23T07:21:02.441Z,18.91
2017-09-23T07:22:12.808Z,19.02
2017-09-23T07:23:22.863Z,18.99
2017-09-23T07:24:32.907Z,19.09
2017-09-23T07:25:42.944Z,19.17
2017-09-23T07:26:52.972Z,19.19
2017-09-23T07:28:02.693Z,19.27
2017-09-23T07:29:13.023Z,19.31
2017-09-23T07:30:23.062Z,19.31
2017-09-23T07:31:33.422Z,19.28
2017-09-23T07:32:43.451Z,19.4
2017-09-23T07:33:53.800Z,19.49
2017-09-23T07:35:03.833Z,19.45
2017-09-23T07:36:14.206Z,19.52
2017-09-23T07:37:24.554Z,19.64
2017-09-23T07:38:34.905Z,19.64
2017-09-23T07:39:45.249Z,19.72
2017-09-23T07:40:55.636Z,19.79
2017-09-23T07:42:05.669Z,19.65
2017-09-23T07:43:16.011Z,19.68
2017-09-23T07:44:26.126Z,19.86
2017-09-23T07:45:36.479Z,20.02
2017-09-23T07:46:46.511Z,20.04
2017-09-23T07:47:56.878Z,20.02
2017-09-23T07:49:07.222Z,20.1
2017-09-23T07:50:17.577Z,20.2
2017-09-23T07:51:27.942Z,20.38
2017-09-23T07:52:38.288Z,20.46
2017-09-23T07:53:48.638Z,20.49
2017-09-23T07:54:59.003Z,20.71
2017-09-23T07:56:09.380Z,20.81
2017-09-23T07:57:19.718Z,21
2017-09-23T07:58:29.424Z,21.27
2017-09-23T07:59:39.460Z,21.52
2017-09-23T08:00:49.808Z,21.67
2017-09-23T08:02:00.168Z,21.97
2017-09-23T08:03:10.212Z,22.14
2017-09-23T08:04:20.250Z,22.11
2017-09-23T08:05:30.603Z,22.14
2017-09-23T08:06:40.625Z,22.26
2017-09-23T08:07:50.988Z,22.39
2017-09-23T08:09:01.024Z,22.49
2017-09-23T08:10:17.519Z,22.42
2017-09-23T08:11:27.868Z,22.33
2017-09-23T08:12:38.225Z,22.14
2017-09-23T08:13:48.265Z,21.97
2017-09-23T08:14:58.614Z,21.83
2017-09-23T08:16:08.974Z,21.68
2017-09-23T08:17:19.316Z,21.64
2017-09-23T08:18:29.368Z,21.58
2017-09-23T08:19:39.712Z,21.58
2017-09-23T08:20:49.751Z,21.49
2017-09-23T08:21:59.465Z,21.51
2017-09-23T08:23:09.813Z,21.37
2017-09-23T08:24:19.852Z,21.37
2017-09-23T08:25:30.259Z,21.38
2017-09-23T08:26:40.596Z,21.45
2017-09-23T08:27:50.637Z,21.49
2017-09-23T08:29:01.014Z,21.49
2017-09-23T08:30:11.056Z,21.55
2017-09-23T08:31:21.402Z,21.78
2017-09-23T08:32:31.441Z,21.93
2017-09-23T08:33:41.793Z,21.94
2017-09-23T08:34:52.147Z,22.11
2017-09-23T08:36:02.489Z,22.11
2017-09-23T08:37:12.891Z,22.24
2017-09-23T08:38:22.942Z,22.16
2017-09-23T08:39:32.994Z,22.2
2017-09-23T08:40:43.336Z,22.14
2017-09-23T08:41:53.356Z,22.11
2017-09-23T08:43:03.717Z,22.16
2017-09-23T08:44:14.104Z,22.08
2017-09-23T08:45:24.461Z,22.08
2017-09-23T08:46:34.808Z,21.96
2017-09-23T08:47:45.149Z,21.92
2017-09-23T08:48:55.496Z,21.82
2017-09-23T08:50:07.176Z,21.83
2017-09-23T08:51:17.595Z,21.89
2017-09-23T08:52:27.632Z,21.89
2017-09-23T08:53:38.012Z,21.77
2017-09-23T08:54:48.373Z,21.82
2017-09-23T08:56:00.825Z,21.74
2017-09-23T08:57:10.894Z,21.71
2017-09-23T08:58:21.269Z,21.83
2017-09-23T08:59:31.308Z,21.97
2017-09-23T09:00:41.331Z,22.14
2017-09-23T09:01:51.387Z,22.44
2017-09-23T09:03:01.119Z,22.57
2017-09-23T09:04:11.480Z,22.81
2017-09-23T09:05:21.819Z,23.25
2017-09-23T09:06:31.519Z,23.41
2017-09-23T09:07:41.577Z,23.59
2017-09-23T09:08:51.916Z,23.71
2017-09-23T09:10:01.620Z,23.72
2017-09-23T09:11:11.652Z,23.7
2017-09-23T09:12:21.988Z,23.63
2017-09-23T09:13:32.349Z,23.63
2017-09-23T09:14:42.380Z,23.56
2017-09-23T09:15:52.727Z,23.4
2017-09-23T09:17:03.073Z,23.25
2017-09-23T09:18:13.120Z,23.19
2017-09-23T09:19:23.184Z,22.92
2017-09-23T09:20:33.562Z,22.96
2017-09-23T09:21:46.035Z,22.81
2017-09-23T09:22:56.387Z,22.75
2017-09-23T09:24:06.421Z,22.69
2017-09-23T09:25:16.479Z,22.67
2017-09-23T09:26:26.880Z,22.64
2017-09-23T09:27:37.229Z,22.7
2017-09-23T09:28:47.575Z,22.6
2017-09-23T09:29:57.925Z,22.64
2017-09-23T09:31:08.284Z,22.63
2017-09-23T09:32:18.684Z,22.55
2017-09-23T09:33:29.036Z,22.51
2017-09-23T09:34:39.398Z,22.46
2017-09-23T09:35:51.789Z,22.38
2017-09-23T09:37:02.152Z,22.41
2017-09-23T09:38:11.603Z,22.42
2017-09-23T09:39:21.633Z,22.33
2017-09-23T09:40:31.997Z,22.31
2017-09-23T09:41:42.045Z,22.27
2017-09-23T09:42:52.120Z,22.26
2017-09-23T09:44:02.521Z,22.3
2017-09-23T09:45:12.543Z,22.44
2017-09-23T09:46:22.274Z,22.23
2017-09-23T09:47:32.629Z,22.34
2017-09-23T09:48:42.977Z,22.12
2017-09-23T09:49:53.391Z,22.24
2017-09-23T09:51:03.728Z,22.27
2017-09-23T09:52:13.751Z,22.23
2017-09-23T09:53:24.103Z,22.16
2017-09-23T09:54:34.148Z,22.11
2017-09-23T09:55:44.170Z,22.2
2017-09-23T09:56:54.206Z,22.08
2017-09-23T09:58:05.422Z,21.99
2017-09-23T09:59:16.897Z,21.93
2017-09-23T10:00:29.993Z,21.89
2017-09-23T10:01:40.419Z,21.9
2017-09-23T10:02:50.767Z,21.78
2017-09-23T10:04:00.813Z,21.77
2017-09-23T10:05:11.155Z,21.71
2017-09-23T10:06:21.496Z,21.8
2017-09-23T10:07:31.595Z,21.93
2017-09-23T10:08:41.949Z,21.93
2017-09-23T10:09:52.291Z,21.83
2017-09-23T10:11:09.342Z,21.77
2017-09-23T10:12:24.642Z,21.73
2017-09-23T10:13:34.690Z,21.56
2017-09-23T10:14:44.442Z,21.46
2017-09-23T10:15:54.471Z,21.49
2017-09-23T10:17:04.194Z,21.61
2017-09-23T10:18:14.245Z,21.59
2017-09-23T10:19:24.616Z,21.68
2017-09-23T10:20:34.984Z,21.62
2017-09-23T10:21:45.479Z,21.64
2017-09-23T10:22:57.829Z,21.74
2017-09-23T10:24:11.923Z,21.8
2017-09-23T10:25:22.308Z,22
2017-09-23T10:26:32.668Z,21.92
2017-09-23T10:27:42.713Z,22.2
2017-09-23T10:28:53.075Z,22.27
2017-09-23T10:30:03.486Z,22.49
2017-09-23T10:31:13.520Z,22.52
2017-09-23T10:32:23.867Z,22.6
2017-09-23T10:33:34.216Z,22.64
2017-09-23T10:34:44.259Z,22.64
2017-09-23T10:35:54.303Z,22.75
2017-09-23T10:37:04.964Z,22.7
2017-09-23T10:38:15.603Z,22.78
2017-09-23T10:39:25.655Z,22.78
2017-09-23T10:40:36.118Z,22.78
2017-09-23T10:41:46.509Z,22.75
2017-09-23T10:42:56.866Z,22.79
2017-09-23T10:44:07.441Z,22.81
2017-09-23T10:45:17.501Z,22.81
2017-09-23T10:46:27.891Z,22.89
2017-09-23T10:47:38.303Z,22.82
2017-09-23T10:48:48.882Z,22.78
2017-09-23T10:49:59.241Z,22.85
2017-09-23T10:51:09.295Z,22.97
2017-09-23T10:52:19.673Z,22.91
2017-09-23T10:53:30.042Z,23.1
2017-09-23T10:54:40.402Z,23.19
2017-09-23T10:55:50.448Z,23.14
2017-09-23T10:57:01.721Z,23.22
2017-09-23T10:58:12.111Z,23.24
2017-09-23T10:59:22.544Z,23.34
2017-09-23T11:00:32.923Z,23.35
2017-09-23T11:01:43.293Z,23.5
2017-09-23T11:02:53.654Z,23.57
2017-09-23T11:04:04.005Z,23.59
2017-09-23T11:05:14.057Z,23.63
2017-09-23T11:06:24.146Z,23.59
2017-09-23T11:07:34.290Z,23.63
2017-09-23T11:08:44.679Z,23.7
2017-09-23T11:09:55.053Z,23.75
2017-09-23T11:11:05.408Z,23.81
2017-09-23T11:12:15.782Z,23.77
2017-09-23T11:13:26.148Z,23.79
2017-09-23T11:14:36.551Z,23.79
2017-09-23T11:15:46.602Z,23.79
2017-09-23T11:16:57.008Z,23.79
2017-09-23T11:18:06.730Z,23.82
2017-09-23T11:19:17.110Z,23.82
2017-09-23T11:20:27.157Z,23.84
2017-09-23T11:21:37.534Z,23.78
2017-09-23T11:22:47.950Z,23.78
2017-09-23T11:23:58.313Z,23.71
2017-09-23T11:25:08.664Z,23.7
2017-09-23T11:26:18.703Z,23.77
2017-09-23T11:27:29.051Z,23.71
2017-09-23T11:28:39.405Z,23.67
2017-09-23T11:29:53.501Z,23.64
2017-09-23T11:31:03.864Z,23.77
2017-09-23T11:32:14.229Z,23.82
2017-09-23T11:33:24.597Z,23.71
2017-09-23T11:34:35.035Z,23.85
2017-09-23T11:35:45.073Z,23.87
2017-09-23T11:36:55.442Z,23.93
2017-09-23T11:38:05.503Z,23.92
2017-09-23T11:39:15.557Z,24
2017-09-23T11:40:25.930Z,23.99
2017-09-23T11:41:36.290Z,23.99
2017-09-23T11:42:48.527Z,24.11
2017-09-23T11:43:58.873Z,24.08
2017-09-23T11:45:09.246Z,24.04
2017-09-23T11:46:19.622Z,24.03
2017-09-23T11:47:29.985Z,24.07
2017-09-23T11:48:40.022Z,24.09
2017-09-23T11:49:50.388Z,24.09
2017-09-23T11:51:00.440Z,24.03
2017-09-23T11:52:10.533Z,23.99
2017-09-23T11:53:20.894Z,24.07
2017-09-23T11:54:31.241Z,23.96
2017-09-23T11:55:41.601Z,23.89
2017-09-23T11:56:51.645Z,23.82
2017-09-23T11:58:01.432Z,23.75
2017-09-23T11:59:11.461Z,23.66
2017-09-23T12:00:21.821Z,23.59
2017-09-23T12:01:32.191Z,23.55
2017-09-23T12:02:43.495Z,23.57
2017-09-23T12:03:53.589Z,23.57
2017-09-23T12:05:03.631Z,23.57
2017-09-23T12:06:13.994Z,23.55
2017-09-23T12:07:24.355Z,23.53
2017-09-23T12:08:34.630Z,23.52
2017-09-23T12:09:44.729Z,23.56
2017-09-23T12:10:55.089Z,23.59
2017-09-23T12:12:05.449Z,23.53
2017-09-23T12:13:15.815Z,23.45
2017-09-23T12:14:25.861Z,23.53
2017-09-23T12:15:35.945Z,23.56
2017-09-23T12:16:46.297Z,23.5
2017-09-23T12:17:56.660Z,23.6
2017-09-23T12:19:06.709Z,23.63
2017-09-23T12:20:17.059Z,23.77
2017-09-23T12:21:27.469Z,23.82
2017-09-23T12:22:37.826Z,23.81
2017-09-23T12:23:47.842Z,23.82
2017-09-23T12:24:57.869Z,23.92
2017-09-23T12:26:07.607Z,23.9
2017-09-23T12:27:18.017Z,23.99
2017-09-23T12:28:27.736Z,23.93
2017-09-23T12:29:38.091Z,24
2017-09-23T12:30:48.151Z,23.96
2017-09-23T12:31:58.501Z,24.04
2017-09-23T12:33:08.595Z,24.17
2017-09-23T12:34:18.644Z,24.27
2017-09-23T12:35:28.677Z,24.44
2017-09-23T12:36:38.717Z,24.61
2017-09-23T12:37:48.441Z,24.75
2017-09-23T12:38:58.855Z,24.74
2017-09-23T12:40:08.910Z,24.94
2017-09-23T12:41:19.274Z,25.12
2017-09-23T12:42:29.622Z,25.26
2017-09-23T12:43:40.008Z,25.42
2017-09-23T12:44:50.439Z,25.54
2017-09-23T12:46:00.458Z,25.63
2017-09-23T12:47:10.837Z,25.76
2017-09-23T12:48:20.872Z,25.88
2017-09-23T12:49:31.226Z,25.89
2017-09-23T12:50:41.618Z,25.96
2017-09-23T12:51:52.243Z,25.94
2017-09-23T12:53:02.598Z,25.82
2017-09-23T12:54:12.981Z,25.84
2017-09-23T12:55:24.513Z,25.75
2017-09-23T12:56:34.635Z,25.62
2017-09-23T12:57:44.991Z,25.75
2017-09-23T12:58:57.892Z,25.7
2017-09-23T13:00:07.624Z,25.88
2017-09-23T13:01:17.668Z,25.86
2017-09-23T13:02:28.024Z,25.91
2017-09-23T13:03:40.238Z,25.75
2017-09-23T13:04:51.491Z,25.79
2017-09-23T13:06:01.197Z,25.75
2017-09-23T13:07:11.559Z,25.6
2017-09-23T13:08:21.646Z,25.56
2017-09-23T13:09:31.690Z,25.34
2017-09-23T13:10:42.058Z,25.29
2017-09-23T13:11:52.112Z,25.15
2017-09-23T13:13:02.487Z,25.14
2017-09-23T13:14:12.590Z,25.12
2017-09-23T13:15:24.719Z,25.01
2017-09-23T13:16:35.065Z,25.05
2017-09-23T13:17:45.424Z,25.05
2017-09-23T13:18:55.782Z,24.96
2017-09-23T13:20:06.154Z,24.9
2017-09-23T13:21:16.557Z,24.7
2017-09-23T13:22:26.908Z,24.56
2017-09-23T13:23:36.967Z,24.45
2017-09-23T13:24:47.342Z,24.37
2017-09-23T13:25:57.754Z,24.34
2017-09-23T13:27:07.803Z,24.19
2017-09-23T13:28:17.849Z,23.99
2017-09-23T13:29:30.169Z,23.94
2017-09-23T13:30:40.216Z,23.81
2017-09-23T13:31:50.295Z,23.71
2017-09-23T13:33:02.565Z,23.62
2017-09-23T13:34:12.925Z,23.66
2017-09-23T13:35:23.281Z,23.53
2017-09-23T13:36:33.335Z,23.53
2017-09-23T13:37:43.759Z,23.4
2017-09-23T13:38:53.803Z,23.22
2017-09-23T13:40:04.154Z,23.14
2017-09-23T13:41:14.522Z,23.04
2017-09-23T13:42:24.881Z,22.96
2017-09-23T13:43:35.234Z,22.96
2017-09-23T13:44:45.606Z,22.91
2017-09-23T13:45:55.670Z,22.82
2017-09-23T13:47:06.056Z,22.82
2017-09-23T13:48:16.443Z,22.66
2017-09-23T13:49:26.540Z,22.66
2017-09-23T13:50:36.906Z,22.6
2017-09-23T13:51:47.275Z,22.51
2017-09-23T13:52:57.626Z,22.44
2017-09-23T13:54:07.990Z,22.54
2017-09-23T13:55:18.342Z,22.44
2017-09-23T13:56:28.703Z,22.38
2017-09-23T13:57:39.082Z,22.27
2017-09-23T13:58:49.151Z,22.36
2017-09-23T13:59:59.549Z,22.33
2017-09-23T14:01:09.899Z,22.15
2017-09-23T14:02:20.248Z,22.12
2017-09-23T14:03:30.591Z,22.12
2017-09-23T14:04:40.961Z,22
2017-09-23T14:05:51.011Z,21.99
2017-09-23T14:07:01.385Z,21.9
2017-09-23T14:08:11.764Z,21.83
2017-09-23T14:09:21.813Z,21.74
2017-09-23T14:10:32.175Z,21.76
2017-09-23T14:11:42.222Z,21.76
2017-09-23T14:12:51.972Z,21.66
2017-09-23T14:14:02.340Z,21.64
2017-09-23T14:15:12.736Z,21.56
2017-09-23T14:16:23.090Z,21.55
2017-09-23T14:17:34.765Z,21.33
2017-09-23T14:18:50.472Z,21.19
2017-09-23T14:20:04.300Z,21.12
2017-09-23T14:21:43.823Z,21.08
2017-09-23T14:22:54.188Z,20.94
2017-09-23T14:24:05.133Z,20.78
2017-09-23T14:25:15.498Z,20.76
2017-09-23T14:26:25.927Z,20.76
2017-09-23T14:27:36.316Z,20.68
2017-09-23T14:28:46.334Z,20.68
2017-09-23T14:29:57.150Z,20.72
2017-09-23T14:31:07.183Z,20.72
2017-09-23T14:32:17.285Z,20.68
2017-09-23T14:33:27.318Z,20.72
2017-09-23T14:34:37.343Z,20.64
2017-09-23T14:35:47.706Z,20.67
2017-09-23T14:36:58.074Z,20.66
2017-09-23T14:38:08.933Z,20.63
2017-09-23T14:39:19.306Z,20.61
2017-09-23T14:40:29.673Z,20.56
2017-09-23T14:41:47.467Z,20.58
2017-09-23T14:45:21.088Z,20.23
2017-09-23T14:46:31.501Z,20.22
2017-09-23T14:47:41.850Z,20.23
2017-09-23T14:48:52.220Z,20.08
2017-09-23T14:50:02.263Z,20.18
2017-09-23T14:51:12.629Z,20.04
2017-09-23T14:52:23.054Z,20.07
2017-09-23T14:53:33.083Z,19.98
2017-09-23T14:54:43.122Z,20
2017-09-23T14:55:53.509Z,19.92
2017-09-23T14:57:03.859Z,19.92
2017-09-23T14:58:14.210Z,19.93
2017-09-23T14:59:24.644Z,19.95
2017-09-23T15:00:35.003Z,19.93
2017-09-23T15:01:45.048Z,19.87
2017-09-23T15:02:55.090Z,19.78
2017-09-23T15:04:05.511Z,19.8
2017-09-23T15:05:15.532Z,19.71
2017-09-23T15:06:25.900Z,19.67
2017-09-23T15:07:36.271Z,19.67
2017-09-23T15:08:46.006Z,19.71
2017-09-23T15:09:56.122Z,19.63
2017-09-23T15:11:06.487Z,19.64
2017-09-23T15:12:16.536Z,19.67
2017-09-23T15:13:26.560Z,19.65
2017-09-23T15:14:37.218Z,19.65
2017-09-23T15:15:47.745Z,19.7
2017-09-23T15:16:58.127Z,19.67
2017-09-23T15:18:08.506Z,19.67
2017-09-23T15:19:18.215Z,19.67
2017-09-23T15:20:28.578Z,19.63
2017-09-23T15:21:39.015Z,19.63
2017-09-23T15:22:49.388Z,19.56
2017-09-23T15:23:59.453Z,19.52
2017-09-23T15:25:09.837Z,19.55
2017-09-23T15:26:20.190Z,19.46
2017-09-23T15:27:30.632Z,19.37
2017-09-23T15:28:40.666Z,19.32
2017-09-23T15:29:50.711Z,19.27
2017-09-23T15:31:00.775Z,19.15
2017-09-23T15:32:11.148Z,18.97
2017-09-23T15:33:21.252Z,18.93
2017-09-23T15:34:31.604Z,18.96
2017-09-23T15:35:41.657Z,18.84
2017-09-23T15:36:52.047Z,18.89
2017-09-23T15:38:02.416Z,18.78
2017-09-23T15:39:12.836Z,18.78
2017-09-23T15:40:23.231Z,18.57
2017-09-23T15:41:33.278Z,18.65
2017-09-23T15:42:43.000Z,18.54